createdAt,value
2022-11-09T00:02:59.549Z,5.90
2022-11-09T00:06:02.351Z,7.60
2022-11-09T00:09:08.160Z,6.70
2022-11-09T00:12:10.120Z,6.80
2022-11-09T00:15:11.856Z,5.80
2022-11-09T00:18:13.303Z,6.50
2022-11-09T00:21:23.383Z,7.00
2022-11-09T00:24:25.542Z,7.00
2022-11-09T00:27:30.704Z,6.70
2022-11-09T00:30:32.254Z,5.60
2022-11-09T00:33:34.603Z,5.70
2022-11-09T00:36:36.192Z,6.10
2022-11-09T00:39:40.327Z,7.40
2022-11-09T00:42:42.006Z,7.00
2022-11-09T00:45:44.261Z,7.10
2022-11-09T00:49:13.274Z,6.00
2022-11-09T00:52:14.797Z,6.30
2022-11-09T00:55:52.650Z,6.70
2022-11-09T00:58:55.950Z,7.50
2022-11-09T01:01:57.488Z,7.40
2022-11-09T01:05:01.553Z,6.10
2022-11-09T01:08:03.033Z,6.80
2022-11-09T01:11:06.902Z,7.00
2022-11-09T01:14:09.135Z,7.00
2022-11-09T01:17:10.593Z,6.90
2022-11-09T01:20:12.388Z,6.00
2022-11-09T01:23:18.048Z,6.70
2022-11-09T01:26:25.015Z,7.20
2022-11-09T01:29:26.575Z,9.00
2022-11-09T01:32:31.607Z,6.90
2022-11-09T01:35:35.296Z,6.90
2022-11-09T01:38:38.244Z,6.40
2022-11-09T01:41:39.815Z,7.40
2022-11-09T01:44:42.337Z,7.30
2022-11-09T01:47:47.090Z,6.00
2022-11-09T01:50:54.419Z,6.30
2022-11-09T01:54:05.977Z,6.50
2022-11-09T01:57:15.302Z,7.30
2022-11-09T02:00:18.186Z,6.90
2022-11-09T02:03:27.131Z,6.60
2022-11-09T02:06:30.327Z,5.80
2022-11-09T02:09:55.307Z,6.70
2022-11-09T02:12:58.942Z,6.60
2022-11-09T02:16:00.707Z,6.50
2022-11-09T02:19:02.215Z,6.40
2022-11-09T02:22:04.915Z,5.50
2022-11-09T02:25:07.833Z,6.40
2022-11-09T02:28:09.390Z,6.50
2022-11-09T02:31:14.938Z,7.70
2022-11-09T02:34:20.776Z,6.50
2022-11-09T02:37:39.144Z,5.30
2022-11-09T02:40:45.148Z,5.20
2022-11-09T02:43:47.789Z,5.90
2022-11-09T02:46:49.256Z,7.30
2022-11-09T02:49:50.867Z,7.60
2022-11-09T02:52:52.275Z,5.90
2022-11-09T02:55:53.683Z,4.50
2022-11-09T02:58:55.189Z,5.40
2022-11-09T03:01:56.597Z,5.10
2022-11-09T03:04:58.095Z,5.80
2022-11-09T03:08:01.797Z,5.70
2022-11-09T03:11:05.547Z,6.30
2022-11-09T03:14:09.311Z,5.10
2022-11-09T03:17:10.844Z,5.60
2022-11-09T03:20:16.731Z,7.70
2022-11-09T03:23:18.482Z,5.80
2022-11-09T03:26:21.165Z,6.40
2022-11-09T03:29:23.655Z,5.70
2022-11-09T03:32:25.881Z,5.40
2022-11-09T03:35:28.275Z,6.40
2022-11-09T03:38:29.706Z,6.60
2022-11-09T03:41:31.175Z,5.50
2022-11-09T03:44:32.636Z,5.30
2022-11-09T03:47:34.003Z,5.20
2022-11-09T03:50:39.898Z,5.20
2022-11-09T03:53:41.333Z,5.90
2022-11-09T03:56:42.847Z,6.40
2022-11-09T03:59:44.236Z,6.60
2022-11-09T04:02:45.952Z,6.10
2022-11-09T04:05:47.463Z,4.40
2022-11-09T04:08:51.469Z,5.60
2022-11-09T04:11:53.167Z,8.70
2022-11-09T04:15:09.425Z,5.60
2022-11-09T04:18:14.301Z,7.70
2022-11-09T04:21:21.441Z,5.40
2022-11-09T04:24:25.174Z,5.80
2022-11-09T04:27:27.050Z,6.00
2022-11-09T04:31:21.284Z,7.00
2022-11-09T04:34:25.501Z,6.10
2022-11-09T04:37:26.975Z,6.20
2022-11-09T04:40:31.490Z,7.20
2022-11-09T04:43:32.951Z,6.60
2022-11-09T04:46:34.398Z,6.50
2022-11-09T04:49:35.863Z,7.40
2022-11-09T04:52:37.551Z,6.40
2022-11-09T04:55:40.692Z,5.30
2022-11-09T04:58:42.798Z,7.00
2022-11-09T05:01:44.333Z,7.30
2022-11-09T05:04:45.955Z,7.20
2022-11-09T05:07:47.403Z,8.10
2022-11-09T05:10:48.981Z,5.80
2022-11-09T05:13:53.332Z,7.20
2022-11-09T05:16:54.733Z,6.90
2022-11-09T05:19:56.202Z,6.40
2022-11-09T05:23:17.852Z,7.20
2022-11-09T05:26:19.714Z,6.20
2022-11-09T05:29:21.108Z,7.30
2022-11-09T05:32:22.558Z,8.50
2022-11-09T05:35:24.180Z,8.70
2022-11-09T05:38:25.636Z,7.60
2022-11-09T05:41:27.709Z,8.00
2022-11-09T05:44:30.134Z,7.70
2022-11-09T05:47:36.870Z,7.90
2022-11-09T05:50:39.186Z,8.60
2022-11-09T05:53:45.917Z,8.20
2022-11-09T05:56:48.653Z,7.60
2022-11-09T05:59:50.118Z,7.40
2022-11-09T06:02:51.923Z,11.30
2022-11-09T06:05:53.454Z,9.30
2022-11-09T06:08:57.523Z,8.40
2022-11-09T06:11:59.455Z,7.90
2022-11-09T06:15:04.847Z,9.30
2022-11-09T06:18:06.386Z,10.30
2022-11-09T06:21:07.886Z,9.90
2022-11-09T06:24:09.970Z,8.40
2022-11-09T06:27:11.608Z,8.70
2022-11-09T06:30:13.492Z,8.70
2022-11-09T06:33:15.157Z,12.70
2022-11-09T06:36:16.862Z,9.60
2022-11-09T06:39:19.727Z,7.90
2022-11-09T06:42:21.499Z,8.60
2022-11-09T06:45:23.430Z,8.70
2022-11-09T06:48:25.045Z,10.80
2022-11-09T06:51:28.981Z,10.20
2022-11-09T06:54:30.981Z,8.30
2022-11-09T06:57:32.588Z,8.80
2022-11-09T07:00:34.217Z,9.20
2022-11-09T07:03:36.600Z,9.40
2022-11-09T07:06:41.989Z,9.90
2022-11-09T07:09:43.647Z,8.70
2022-11-09T07:12:46.644Z,10.50
2022-11-09T07:15:52.941Z,10.70
2022-11-09T07:18:54.596Z,13.70
2022-11-09T07:21:57.105Z,10.90
2022-11-09T07:24:58.749Z,9.40
2022-11-09T07:28:06.978Z,10.00
2022-11-09T07:31:09.416Z,14.10
2022-11-09T07:34:10.946Z,12.70
2022-11-09T07:37:15.537Z,10.10
2022-11-09T07:40:17.118Z,9.40
2022-11-09T07:43:19.297Z,10.30
2022-11-09T07:47:04.091Z,10.60
2022-11-09T07:50:06.352Z,10.80
2022-11-09T07:53:10.315Z,10.40
2022-11-09T07:56:12.046Z,12.00
2022-11-09T07:59:13.728Z,11.70
2022-11-09T08:02:15.229Z,12.80
2022-11-09T08:05:17.134Z,11.10
2022-11-09T08:08:18.800Z,9.90
2022-11-09T08:11:21.083Z,9.20
2022-11-09T08:14:22.580Z,11.20
2022-11-09T08:17:24.073Z,12.20
2022-11-09T08:20:25.867Z,14.40
2022-11-09T08:23:27.347Z,10.50
2022-11-09T08:26:29.164Z,11.10
2022-11-09T08:29:30.712Z,11.40
2022-11-09T08:32:59.147Z,11.00
2022-11-09T08:36:01.353Z,12.30
2022-11-09T08:39:06.032Z,9.80
2022-11-09T08:42:08.008Z,10.70
2022-11-09T08:45:11.042Z,12.20
2022-11-09T08:48:13.035Z,12.00
2022-11-09T08:51:14.800Z,15.30
2022-11-09T08:54:17.567Z,13.20
2022-11-09T08:57:19.685Z,12.10
2022-11-09T09:00:21.582Z,11.50
2022-11-09T09:03:23.253Z,13.40
2022-11-09T09:06:30.640Z,13.70
2022-11-09T09:09:34.264Z,9.40
2022-11-09T09:12:36.340Z,10.10
2022-11-09T09:15:38.245Z,14.30
2022-11-09T09:18:40.031Z,12.20
2022-11-09T09:21:41.837Z,12.80
2022-11-09T09:24:53.361Z,8.80
2022-11-09T09:27:55.288Z,11.70
2022-11-09T09:30:59.281Z,11.20
2022-11-09T09:34:01.291Z,12.90
2022-11-09T09:37:03.087Z,15.20
2022-11-09T09:40:05.661Z,12.40
2022-11-09T09:43:27.064Z,11.00
2022-11-09T09:46:58.328Z,12.60
2022-11-09T09:50:05.644Z,10.30
2022-11-09T09:53:24.627Z,12.50
2022-11-09T09:56:33.663Z,11.80
2022-11-09T09:59:42.322Z,9.20
2022-11-09T10:02:44.072Z,10.40
2022-11-09T10:06:01.483Z,10.20
2022-11-09T10:10:05.915Z,17.30
2022-11-09T10:13:45.882Z,10.40
2022-11-09T10:16:59.696Z,10.50
2022-11-09T10:20:20.383Z,9.20
2022-11-09T10:23:47.060Z,11.10
2022-11-09T10:26:51.260Z,11.00
2022-11-09T10:29:54.888Z,10.50
2022-11-09T10:33:11.430Z,11.20
2022-11-09T10:36:24.422Z,13.10
2022-11-09T10:39:31.802Z,9.80
2022-11-09T10:42:34.009Z,10.50
2022-11-09T10:45:43.871Z,12.30
2022-11-09T10:48:46.188Z,10.20
2022-11-09T10:51:49.101Z,11.30
2022-11-09T10:55:15.865Z,13.10
2022-11-09T10:58:26.922Z,13.00
2022-11-09T11:02:20.340Z,11.60
2022-11-09T11:05:46.372Z,14.10
2022-11-09T11:09:09.490Z,13.80
2022-11-09T11:12:22.873Z,15.70
2022-11-09T11:15:42.187Z,13.90
2022-11-09T11:18:55.005Z,13.00
2022-11-09T11:26:56.853Z,13.90
2022-11-09T11:30:15.930Z,16.30
2022-11-09T11:33:28.740Z,14.20
2022-11-09T11:36:38.745Z,13.90
2022-11-09T11:39:50.213Z,11.60
2022-11-09T11:43:20.589Z,12.80
2022-11-09T11:46:55.446Z,17.00
2022-11-09T11:50:19.282Z,14.90
2022-11-09T11:53:59.921Z,14.20
2022-11-09T11:57:48.867Z,11.80
2022-11-09T12:09:08.479Z,13.00
2022-11-09T12:16:02.202Z,11.50
2022-11-09T12:19:36.010Z,10.00
2022-11-09T12:23:11.235Z,11.70
2022-11-09T12:26:25.022Z,13.00
2022-11-09T12:29:42.093Z,12.80
2022-11-09T12:32:46.604Z,14.50
2022-11-09T12:35:58.986Z,9.40
2022-11-09T12:39:07.347Z,11.10
2022-11-09T12:42:26.717Z,13.10
2022-11-09T12:45:37.939Z,13.30
2022-11-09T12:48:44.040Z,13.30
2022-11-09T12:51:45.910Z,14.40
2022-11-09T12:54:50.199Z,12.80
2022-11-09T12:57:55.839Z,11.10
2022-11-09T13:01:25.121Z,12.30
2022-11-09T13:04:26.849Z,15.40
2022-11-09T13:07:37.874Z,12.50
2022-11-09T13:10:49.728Z,12.50
2022-11-09T13:13:51.667Z,10.10
2022-11-09T13:16:57.822Z,11.20
2022-11-09T13:19:59.557Z,12.20
2022-11-09T13:23:04.752Z,13.90
2022-11-09T13:26:23.304Z,12.00
2022-11-09T13:29:40.637Z,13.30
2022-11-09T13:33:07.633Z,9.50
2022-11-09T13:36:09.108Z,13.10
2022-11-09T13:39:28.005Z,17.30
2022-11-09T13:42:35.643Z,16.00
2022-11-09T13:45:51.840Z,12.50
2022-11-09T13:48:54.700Z,13.50
2022-11-09T13:51:56.444Z,8.90
2022-11-09T13:54:58.409Z,11.30
2022-11-09T13:58:16.868Z,11.50
2022-11-09T14:01:41.232Z,13.00
2022-11-09T14:04:46.722Z,12.40
2022-11-09T14:07:48.571Z,12.40
2022-11-09T14:11:09.883Z,10.00
2022-11-09T14:14:48.957Z,11.50
2022-11-09T14:18:02.660Z,10.80
2022-11-09T14:21:13.630Z,12.00
2022-11-09T14:24:24.120Z,10.70
2022-11-09T14:27:25.928Z,11.10
2022-11-09T14:30:31.254Z,8.20
2022-11-09T14:33:39.266Z,9.50
2022-11-09T14:36:42.500Z,11.20
2022-11-09T14:39:49.304Z,11.60
2022-11-09T14:42:55.883Z,10.80
2022-11-09T14:46:03.565Z,12.70
2022-11-09T14:49:17.558Z,11.10
2022-11-09T14:52:26.848Z,10.90
2022-11-09T14:55:35.179Z,11.00
2022-11-09T14:58:44.272Z,11.60
2022-11-09T15:02:07.313Z,11.80
2022-11-09T15:05:39.399Z,9.30
2022-11-09T15:08:59.751Z,9.80
2022-11-09T15:12:04.301Z,11.00
2022-11-09T15:15:08.273Z,13.80
2022-11-09T15:18:33.341Z,12.10
2022-11-09T15:21:52.510Z,12.80
2022-11-09T15:24:55.575Z,11.40
2022-11-09T15:27:58.861Z,11.70
2022-11-09T15:31:15.932Z,12.60
2022-11-09T15:34:27.674Z,11.90
2022-11-09T15:37:47.687Z,9.70
2022-11-09T15:40:52.276Z,10.80
2022-11-09T15:43:57.043Z,13.70
2022-11-09T15:50:49.268Z,13.40
2022-11-09T15:53:51.029Z,10.10
2022-11-09T15:56:53.049Z,11.30
2022-11-09T16:00:20.912Z,13.90
2022-11-09T16:03:24.896Z,12.50
2022-11-09T16:06:45.274Z,11.40
2022-11-09T16:13:38.538Z,12.90
2022-11-09T16:25:35.215Z,11.40
2022-11-09T16:28:59.393Z,12.20
2022-11-09T16:32:07.746Z,14.80
2022-11-09T16:35:29.332Z,16.60
2022-11-09T16:38:46.355Z,14.00
2022-11-09T16:47:06.963Z,16.30
2022-11-09T16:50:24.114Z,17.90
2022-11-09T16:57:10.383Z,16.70
2022-11-09T17:03:59.162Z,24.20
2022-11-09T17:07:09.736Z,20.00
2022-11-09T17:11:00.186Z,16.10
2022-11-09T17:15:02.686Z,16.50
2022-11-09T17:19:09.456Z,17.30
2022-11-09T17:30:13.422Z,17.10
2022-11-09T17:33:30.202Z,17.60
2022-11-09T17:37:03.210Z,16.50
2022-11-09T17:40:23.372Z,17.10
2022-11-09T17:43:29.791Z,16.00
2022-11-09T17:46:35.268Z,15.10
2022-11-09T17:49:58.785Z,17.30
2022-11-09T17:53:13.567Z,19.00
2022-11-09T17:56:27.610Z,15.80
2022-11-09T18:00:05.530Z,17.00
2022-11-09T18:06:51.861Z,16.90
2022-11-09T18:09:53.994Z,16.50
2022-11-09T18:12:56.131Z,17.30
2022-11-09T18:15:58.032Z,19.60
2022-11-09T18:19:06.777Z,14.50
2022-11-09T18:22:12.871Z,13.90
2022-11-09T18:25:18.846Z,18.00
2022-11-09T18:28:21.674Z,16.90
2022-11-09T18:31:24.627Z,19.50
2022-11-09T18:34:31.040Z,15.80
2022-11-09T18:37:38.676Z,18.80
2022-11-09T18:40:40.424Z,17.90
2022-11-09T18:43:44.623Z,19.70
2022-11-09T18:46:55.330Z,18.40
2022-11-09T18:54:05.585Z,19.00
2022-11-09T18:57:20.375Z,17.30
2022-11-09T19:00:33.322Z,18.20
2022-11-09T19:03:38.570Z,19.20
2022-11-09T19:06:54.531Z,20.20
2022-11-09T19:10:00.350Z,22.20
2022-11-09T19:13:10.017Z,23.30
2022-11-09T19:16:38.657Z,17.50
2022-11-09T19:19:57.571Z,18.60
2022-11-09T19:27:15.223Z,22.20
2022-11-09T19:37:22.715Z,26.10
2022-11-09T19:40:41.139Z,25.40
2022-11-09T19:43:54.445Z,23.50
2022-11-09T19:47:13.129Z,24.10
2022-11-09T19:50:22.720Z,21.10
2022-11-09T19:53:47.059Z,20.80
2022-11-09T19:57:13.658Z,23.00
2022-11-09T20:00:57.865Z,26.70
2022-11-09T20:04:13.339Z,27.60
2022-11-09T20:11:55.843Z,24.10
2022-11-09T20:15:39.845Z,25.00
2022-11-09T20:19:02.654Z,20.80
2022-11-09T20:23:28.069Z,20.90
2022-11-09T20:26:51.084Z,23.20
2022-11-09T20:47:06.723Z,22.30
2022-11-09T20:50:23.670Z,23.80
2022-11-09T20:53:27.251Z,23.80
2022-11-09T20:56:33.869Z,20.90
2022-11-09T20:59:41.802Z,25.10
2022-11-09T21:02:44.965Z,24.20
2022-11-09T21:05:58.947Z,22.00
2022-11-09T21:09:07.716Z,21.30
2022-11-09T21:12:23.051Z,23.70
2022-11-09T21:15:28.940Z,25.40
2022-11-09T21:18:35.789Z,29.00
2022-11-09T21:21:48.748Z,23.50
2022-11-09T21:25:10.478Z,21.50
2022-11-09T21:28:35.431Z,24.30
2022-11-09T21:31:38.451Z,26.50
2022-11-09T21:34:44.755Z,23.50
2022-11-09T21:37:49.057Z,24.50
2022-11-09T21:40:52.542Z,22.30
2022-11-09T21:44:04.807Z,22.20
2022-11-09T21:47:13.502Z,24.60
2022-11-09T21:50:16.688Z,31.10
2022-11-09T21:53:19.801Z,23.80
2022-11-09T21:56:22.914Z,22.80
2022-11-09T21:59:25.862Z,24.50
2022-11-09T22:02:31.098Z,26.00
2022-11-09T22:05:33.967Z,23.20
2022-11-09T22:08:39.109Z,22.80
2022-11-09T22:12:03.271Z,24.60
2022-11-09T22:15:29.194Z,21.90
2022-11-09T22:18:54.952Z,21.70
2022-11-09T22:21:57.854Z,24.30
2022-11-09T22:25:00.721Z,23.40
2022-11-09T22:28:03.625Z,25.90
2022-11-09T22:31:08.645Z,19.80
2022-11-09T22:34:13.180Z,19.50
2022-11-09T22:37:16.225Z,20.70
2022-11-09T22:40:19.169Z,24.20
2022-11-09T22:43:22.189Z,20.30
2022-11-09T22:46:25.200Z,16.30
2022-11-09T22:50:31.371Z,27.70
2022-11-09T22:53:34.719Z,22.70
2022-11-09T22:56:37.548Z,20.60
2022-11-09T22:59:40.447Z,23.50
2022-11-09T23:02:43.287Z,22.30
2022-11-09T23:05:48.192Z,19.60
2022-11-09T23:08:51.328Z,22.40
2022-11-09T23:11:54.099Z,17.80
2022-11-09T23:15:06.076Z,18.00
2022-11-09T23:18:27.887Z,19.90
2022-11-09T23:21:33.672Z,21.40
2022-11-09T23:24:54.972Z,19.40
2022-11-09T23:27:58.930Z,14.20
2022-11-09T23:31:07.612Z,18.50
2022-11-09T23:37:13.238Z,17.30
2022-11-09T23:40:16.348Z,18.30
2022-11-09T23:43:19.791Z,19.80
2022-11-09T23:46:23.069Z,15.00
2022-11-09T23:50:24.601Z,12.80
2022-11-09T23:56:30.983Z,21.30
2022-11-09T23:59:33.910Z,17.90
